Time;durP1;ratioP1;P1;durP2;ratioP2;P2;SDS_P1;SDS_P2;PMS_P1;PMS_P2;Temp;Humidity;BMP_temperature;BMP_pressure;BME280_temperature;BME280_humidity;BME280_pressure;Samples;Min_cycle;Max_cycle;Signal;HPM_P1;HPM_P2
2023/04/12 00:01:27;;;;;;;;;;;7.20;99.90;;;;;;5103326;28;20286;-76
2023/04/12 00:03:53;;;;;;;;;;;7.20;99.90;;;;;;5106679;28;20008;-76
2023/04/12 00:06:24;;;;;;;;;;;7.10;99.90;;;;;;5104802;28;19964;-76
2023/04/12 00:08:50;;;;;;;;;;;7.20;99.90;;;;;;5098613;28;19924;-76
2023/04/12 00:11:15;;;;;;;;;;;7.10;99.90;;;;;;5102215;28;19931;-76
2023/04/12 00:13:41;;;;;;;;;;;7.10;99.90;;;;;;5098457;28;19928;-76
2023/04/12 00:16:07;;;;;;;;;;;7.20;99.90;;;;;;5094974;28;20371;-77
2023/04/12 00:18:33;;;;;;;;;;;7.20;99.90;;;;;;5103939;28;19932;-76
2023/04/12 00:20:58;;;;;;;;;;;7.10;99.90;;;;;;5101055;28;19928;-77
2023/04/12 00:23:24;;;;;;;;;;;7.20;99.90;;;;;;5104308;28;19924;-76
2023/04/12 00:25:49;;;;;;;;;;;7.10;99.90;;;;;;5096314;28;20984;-76
2023/04/12 00:28:15;;;;;;;;;;;7.20;99.90;;;;;;5110036;28;20400;-76
2023/04/12 00:30:40;;;;;;;;;;;7.20;99.90;;;;;;5107187;28;19924;-77
2023/04/12 00:33:06;;;;;;;;;;;7.20;99.90;;;;;;5109836;28;20301;-76
2023/04/12 00:35:32;;;;;;;;;;;7.20;99.90;;;;;;5108515;28;19938;-76
2023/04/12 00:37:57;;;;;;;;;;;7.20;99.90;;;;;;5097945;28;19928;-77
2023/04/12 00:40:23;;;;;;;;;;;7.20;99.90;;;;;;5105743;28;19924;-76
2023/04/12 00:42:48;;;;;;;;;;;7.20;99.90;;;;;;5107623;28;19923;-76
2023/04/12 00:45:14;;;;;;;;;;;7.20;99.90;;;;;;5106157;28;19931;-77
2023/04/12 00:47:41;;;;;;;;;;;7.20;99.90;;;;;;5109164;28;19924;-76
2023/04/12 00:50:08;;;;;;;;;;;7.30;99.90;;;;;;5085050;28;19927;-76
2023/04/12 00:52:34;;;;;;;;;;;7.30;99.90;;;;;;5098336;28;19977;-76
2023/04/12 00:55:02;;;;;;;;;;;7.30;99.90;;;;;;5105779;28;19959;-76
2023/04/12 00:57:29;;;;;;;;;;;7.30;99.90;;;;;;5106169;28;19931;-76
2023/04/12 00:59:54;;;;;;;;;;;7.30;99.90;;;;;;5095579;28;20365;-76
2023/04/12 01:02:20;;;;;;;;;;;7.30;99.90;;;;;;5096556;28;19924;-77
2023/04/12 01:04:49;;;;;;;;;;;7.30;99.90;;;;;;5104089;28;19963;-76
2023/04/12 01:07:30;;;;;;;;;;;7.30;99.90;;;;;;5104621;28;19949;-76
2023/04/12 01:10:00;;;;;;;;;;;7.40;99.90;;;;;;5106706;28;19923;-77
2023/04/12 01:12:35;;;;;;;;;;;7.40;99.90;;;;;;5092806;28;19931;-77
2023/04/12 01:15:01;;;;;;;;;;;7.40;99.90;;;;;;5106691;28;19930;-76
2023/04/12 01:17:28;;;;;;;;;;;7.40;99.90;;;;;;5103404;28;19924;-77
2023/04/12 01:20:00;;;;;;;;;;;7.40;99.90;;;;;;5088447;28;19931;-76
2023/04/12 01:22:39;;;;;;;;;;;7.40;99.90;;;;;;5100879;28;19931;-76
2023/04/12 01:25:22;;;;;;;;;;;7.40;99.90;;;;;;5096724;28;19947;-76
2023/04/12 01:28:02;;;;;;;;;;;7.50;99.90;;;;;;5098824;28;19946;-76
2023/04/12 01:30:28;;;;;;;;;;;7.40;99.90;;;;;;5105209;28;20292;-76
2023/04/12 01:32:54;;;;;;;;;;;7.40;99.90;;;;;;5109250;28;20053;-77
2023/04/12 01:35:21;;;;;;;;;;;7.50;99.90;;;;;;5103601;28;19931;-76
2023/04/12 01:37:47;;;;;;;;;;;7.50;99.90;;;;;;5108457;28;19934;-76
2023/04/12 01:40:13;;;;;;;;;;;7.50;99.90;;;;;;5101618;28;19931;-76
2023/04/12 01:42:41;;;;;;;;;;;7.50;99.90;;;;;;5099029;28;20424;-76
2023/04/12 01:45:07;;;;;;;;;;;7.40;99.90;;;;;;5101400;28;20305;-76
2023/04/12 01:47:33;;;;;;;;;;;7.40;99.90;;;;;;5098532;28;19924;-76
2023/04/12 01:50:06;;;;;;;;;;;7.40;99.90;;;;;;5085185;28;20437;-76
2023/04/12 01:52:35;;;;;;;;;;;7.50;99.90;;;;;;5105539;28;19931;-76
2023/04/12 01:55:03;;;;;;;;;;;7.50;99.90;;;;;;5104244;28;20398;-76
2023/04/12 01:57:29;;;;;;;;;;;7.40;99.90;;;;;;5104334;28;19931;-77
2023/04/12 01:59:55;;;;;;;;;;;7.50;99.90;;;;;;5098657;28;19977;-76
2023/04/12 02:02:21;;;;;;;;;;;7.50;99.90;;;;;;5099478;28;19924;-76
2023/04/12 02:04:46;;;;;;;;;;;7.50;99.90;;;;;;5101092;28;19928;-76
2023/04/12 02:07:14;;;;;;;;;;;7.50;99.90;;;;;;5103113;28;19932;-77
2023/04/12 02:09:40;;;;;;;;;;;7.60;99.90;;;;;;5093333;28;19946;-76
2023/04/12 02:12:06;;;;;;;;;;;7.60;99.90;;;;;;5103769;28;20377;-76
2023/04/12 02:14:31;;;;;;;;;;;7.60;99.90;;;;;;5101681;28;19930;-76
2023/04/12 02:16:58;;;;;;;;;;;7.60;99.90;;;;;;5105023;28;20391;-76
2023/04/12 02:19:23;;;;;;;;;;;7.60;99.90;;;;;;5103190;28;20313;-76
2023/04/12 02:21:49;;;;;;;;;;;7.70;99.90;;;;;;5104187;28;20163;-76
2023/04/12 02:24:15;;;;;;;;;;;7.70;99.90;;;;;;5092299;28;20456;-76
2023/04/12 02:26:41;;;;;;;;;;;7.70;99.90;;;;;;5095369;28;19927;-76
2023/04/12 02:29:09;;;;;;;;;;;7.70;99.90;;;;;;5107200;28;19968;-77
2023/04/12 02:31:35;;;;;;;;;;;7.70;99.90;;;;;;5106011;28;19924;-76
2023/04/12 02:34:01;;;;;;;;;;;7.70;99.90;;;;;;5105804;28;19976;-75
2023/04/12 02:36:27;;;;;;;;;;;7.70;99.90;;;;;;5105173;28;19923;-77
2023/04/12 02:38:54;;;;;;;;;;;7.70;99.90;;;;;;5102637;28;19938;-76
2023/04/12 02:41:20;;;;;;;;;;;7.70;99.90;;;;;;5103657;28;19923;-76
2023/04/12 02:43:46;;;;;;;;;;;7.70;99.90;;;;;;5089397;28;20370;-76
2023/04/12 02:46:18;;;;;;;;;;;7.70;99.90;;;;;;5089311;28;19925;-76
2023/04/12 02:48:44;;;;;;;;;;;7.70;99.90;;;;;;5105532;28;20015;-76
2023/04/12 02:51:09;;;;;;;;;;;7.70;99.90;;;;;;5093078;28;19924;-76
2023/04/12 02:53:35;;;;;;;;;;;7.70;99.90;;;;;;5103865;28;20381;-75
2023/04/12 02:56:02;;;;;;;;;;;7.70;99.90;;;;;;5103921;28;19924;-76
2023/04/12 02:58:28;;;;;;;;;;;7.70;99.90;;;;;;5098492;28;19931;-76
2023/04/12 03:00:54;;;;;;;;;;;7.70;99.90;;;;;;5086136;28;19925;-76
2023/04/12 03:03:20;;;;;;;;;;;7.70;99.90;;;;;;5090710;28;20481;-76
2023/04/12 03:05:46;;;;;;;;;;;7.70;99.90;;;;;;5097050;28;19924;-75
2023/04/12 03:08:12;;;;;;;;;;;7.70;99.90;;;;;;5096985;28;19931;-76
2023/04/12 03:10:37;;;;;;;;;;;7.70;99.90;;;;;;5097034;28;19924;-76
2023/04/12 03:13:03;;;;;;;;;;;7.70;99.90;;;;;;5073123;28;19981;-75
2023/04/12 03:15:29;;;;;;;;;;;7.70;99.90;;;;;;5086052;28;19928;-76
2023/04/12 03:17:55;;;;;;;;;;;7.70;99.90;;;;;;5096193;28;19930;-76
2023/04/12 03:20:23;;;;;;;;;;;7.70;99.90;;;;;;5085356;28;20301;-76
2023/04/12 03:22:49;;;;;;;;;;;7.70;99.90;;;;;;5093410;28;20621;-76
2023/04/12 03:25:16;;;;;;;;;;;7.70;99.90;;;;;;5096290;28;19931;-76
2023/04/12 03:27:42;;;;;;;;;;;7.70;99.90;;;;;;5103407;28;19924;-76
2023/04/12 03:30:10;;;;;;;;;;;7.70;99.90;;;;;;5087036;28;19974;-76
2023/04/12 03:32:36;;;;;;;;;;;7.80;99.90;;;;;;5105426;28;20385;-76
2023/04/12 03:35:02;;;;;;;;;;;7.80;99.90;;;;;;5087864;28;19935;-76
2023/04/12 03:37:27;;;;;;;;;;;7.80;99.90;;;;;;5103152;28;19932;-76
2023/04/12 03:39:53;;;;;;;;;;;7.80;99.90;;;;;;5107732;28;19931;-76
2023/04/12 03:42:19;;;;;;;;;;;7.80;99.90;;;;;;5076502;28;20011;-76
2023/04/12 03:44:44;;;;;;;;;;;7.80;99.90;;;;;;5105667;28;20014;-76
2023/04/12 03:47:10;;;;;;;;;;;7.80;99.90;;;;;;5097106;28;19985;-76
2023/04/12 03:49:37;;;;;;;;;;;7.80;99.90;;;;;;5107345;28;20297;-76
2023/04/12 03:52:03;;;;;;;;;;;7.80;99.90;;;;;;5107707;28;19973;-76
2023/04/12 03:54:29;;;;;;;;;;;7.80;99.90;;;;;;5108303;28;19924;-76
2023/04/12 03:56:55;;;;;;;;;;;7.80;99.90;;;;;;5108190;28;20019;-76
2023/04/12 03:59:21;;;;;;;;;;;7.80;99.90;;;;;;5107080;28;19928;-76
2023/04/12 04:01:46;;;;;;;;;;;7.80;99.90;;;;;;5107902;28;20258;-76
2023/04/12 04:04:12;;;;;;;;;;;7.90;99.90;;;;;;5105959;28;20007;-76
2023/04/12 04:06:38;;;;;;;;;;;7.90;99.90;;;;;;5099743;28;20374;-76
2023/04/12 04:09:03;;;;;;;;;;;7.90;99.90;;;;;;5101538;28;20282;-76
2023/04/12 04:11:30;;;;;;;;;;;8.00;99.90;;;;;;5106521;28;19973;-76
2023/04/12 04:13:56;;;;;;;;;;;7.90;99.90;;;;;;5104739;28;19924;-77
2023/04/12 04:16:21;;;;;;;;;;;7.90;99.90;;;;;;5106889;28;20347;-76
2023/04/12 04:18:47;;;;;;;;;;;7.90;99.90;;;;;;5101785;28;19935;-76
2023/04/12 04:21:13;;;;;;;;;;;7.90;99.90;;;;;;5075928;28;19924;-76
2023/04/12 04:23:39;;;;;;;;;;;7.90;99.90;;;;;;5102692;28;19968;-76
2023/04/12 04:26:05;;;;;;;;;;;8.00;99.90;;;;;;5101278;28;19928;-76
2023/04/12 04:28:32;;;;;;;;;;;7.90;99.90;;;;;;5089394;28;19931;-76
2023/04/12 04:31:02;;;;;;;;;;;7.90;99.90;;;;;;5088613;28;19928;-76
2023/04/12 04:33:28;;;;;;;;;;;7.90;99.90;;;;;;5087503;28;19931;-76
2023/04/12 04:35:55;;;;;;;;;;;7.90;99.90;;;;;;5088335;28;19924;-76
2023/04/12 04:38:24;;;;;;;;;;;7.90;99.90;;;;;;5088130;28;19958;-76
2023/04/12 04:40:52;;;;;;;;;;;7.80;99.90;;;;;;5096294;28;20001;-76
2023/04/12 04:43:19;;;;;;;;;;;7.80;99.90;;;;;;5092296;28;20100;-76
2023/04/12 04:45:47;;;;;;;;;;;7.80;99.90;;;;;;5106743;28;20565;-76
2023/04/12 04:48:13;;;;;;;;;;;7.70;99.90;;;;;;5109184;28;20463;-76
2023/04/12 04:50:38;;;;;;;;;;;7.70;99.90;;;;;;5110783;28;19961;-76
2023/04/12 04:53:04;;;;;;;;;;;7.70;99.90;;;;;;5108942;28;19924;-76
2023/04/12 04:55:29;;;;;;;;;;;7.70;99.90;;;;;;5110618;28;20290;-76
2023/04/12 04:57:56;;;;;;;;;;;7.60;99.90;;;;;;5106836;28;20363;-76
2023/04/12 05:00:24;;;;;;;;;;;7.60;99.90;;;;;;5102564;28;20003;-76
2023/04/12 05:02:50;;;;;;;;;;;7.60;99.90;;;;;;5104656;28;19989;-76
2023/04/12 05:05:16;;;;;;;;;;;7.60;99.90;;;;;;5110593;28;20632;-76
2023/04/12 05:07:44;;;;;;;;;;;7.50;99.90;;;;;;5097186;28;19924;-78
2023/04/12 05:10:10;;;;;;;;;;;7.50;99.90;;;;;;5108416;28;20433;-78
2023/04/12 05:12:36;;;;;;;;;;;7.50;99.90;;;;;;5105682;28;20002;-78
2023/04/12 05:15:02;;;;;;;;;;;7.50;99.90;;;;;;5110010;28;20362;-76
2023/04/12 05:17:27;;;;;;;;;;;7.50;99.90;;;;;;5105925;28;20009;-76
2023/04/12 05:19:53;;;;;;;;;;;7.50;99.90;;;;;;5090162;28;19932;-76
2023/04/12 05:22:22;;;;;;;;;;;7.50;99.90;;;;;;5104939;28;19930;-76
2023/04/12 05:24:48;;;;;;;;;;;7.50;99.90;;;;;;5100583;28;20294;-76
2023/04/12 05:27:17;;;;;;;;;;;7.50;99.90;;;;;;5073887;28;20015;-76
2023/04/12 05:29:43;;;;;;;;;;;7.50;99.90;;;;;;5102350;28;20391;-76
2023/04/12 05:32:09;;;;;;;;;;;7.50;99.90;;;;;;5075906;28;19928;-76
2023/04/12 05:34:34;;;;;;;;;;;7.40;99.90;;;;;;5074035;28;19924;-76
2023/04/12 05:37:00;;;;;;;;;;;7.50;99.90;;;;;;5095397;28;19924;-76
2023/04/12 05:39:26;;;;;;;;;;;7.40;99.90;;;;;;5110147;28;19941;-76
2023/04/12 05:41:51;;;;;;;;;;;7.40;99.90;;;;;;5109995;28;20026;-76
2023/04/12 05:44:17;;;;;;;;;;;7.50;99.90;;;;;;5110740;28;19923;-76
2023/04/12 05:46:43;;;;;;;;;;;7.50;99.90;;;;;;5096215;28;19924;-76
2023/04/12 05:49:08;;;;;;;;;;;7.50;99.90;;;;;;5101403;28;19969;-76
2023/04/12 05:51:34;;;;;;;;;;;7.50;99.90;;;;;;5103812;28;19936;-74
2023/04/12 05:54:00;;;;;;;;;;;7.50;99.90;;;;;;5073601;28;19928;-73
2023/04/12 05:56:25;;;;;;;;;;;7.50;99.90;;;;;;5087483;28;19959;-75
2023/04/12 05:58:51;;;;;;;;;;;7.50;99.90;;;;;;5081521;28;19931;-75
2023/04/12 06:01:18;;;;;;;;;;;7.50;99.90;;;;;;5107051;28;20445;-75
2023/04/12 06:03:44;;;;;;;;;;;7.50;99.90;;;;;;5109653;28;19930;-76
2023/04/12 06:06:10;;;;;;;;;;;7.50;99.90;;;;;;5094879;28;19924;-76
2023/04/12 06:08:36;;;;;;;;;;;7.50;99.90;;;;;;5109010;28;19938;-76
2023/04/12 06:11:06;;;;;;;;;;;7.50;99.90;;;;;;5108413;28;20003;-76
2023/04/12 06:13:32;;;;;;;;;;;7.60;99.90;;;;;;5110439;28;19928;-76
2023/04/12 06:15:58;;;;;;;;;;;7.60;99.90;;;;;;5103001;28;19935;-76
2023/04/12 06:18:23;;;;;;;;;;;7.60;99.90;;;;;;5101424;28;20357;-76
2023/04/12 06:20:49;;;;;;;;;;;7.60;99.90;;;;;;5078626;28;19928;-76
2023/04/12 06:23:14;;;;;;;;;;;7.60;99.90;;;;;;5090768;28;20397;-76
2023/04/12 06:25:40;;;;;;;;;;;7.60;99.90;;;;;;5094568;28;19937;-76
2023/04/12 06:28:05;;;;;;;;;;;7.60;99.90;;;;;;5110215;28;20360;-76
2023/04/12 06:30:31;;;;;;;;;;;7.70;99.90;;;;;;5109744;28;19923;-75
2023/04/12 06:32:56;;;;;;;;;;;7.60;99.90;;;;;;5093032;28;19924;-76
2023/04/12 06:35:22;;;;;;;;;;;7.60;99.90;;;;;;5078584;28;20437;-76
2023/04/12 06:37:48;;;;;;;;;;;7.60;99.90;;;;;;5110974;28;19974;-76
2023/04/12 06:40:13;;;;;;;;;;;7.60;99.90;;;;;;5108359;28;19931;-77
2023/04/12 06:42:39;;;;;;;;;;;7.60;99.90;;;;;;5111221;28;19924;-76
2023/04/12 06:45:05;;;;;;;;;;;7.70;99.90;;;;;;5104776;28;19959;-76
2023/04/12 06:47:30;;;;;;;;;;;7.70;99.90;;;;;;5099036;28;19924;-76
2023/04/12 06:49:57;;;;;;;;;;;7.70;99.90;;;;;;5109092;28;19924;-76
2023/04/12 06:52:25;;;;;;;;;;;7.70;99.90;;;;;;5110091;28;19970;-76
2023/04/12 06:54:51;;;;;;;;;;;7.70;99.90;;;;;;5103756;28;20306;-76
2023/04/12 06:57:17;;;;;;;;;;;7.70;99.90;;;;;;5099911;28;19923;-76
2023/04/12 06:59:42;;;;;;;;;;;7.60;99.90;;;;;;5106786;28;19928;-76
2023/04/12 07:02:08;;;;;;;;;;;7.70;99.90;;;;;;5107506;28;19930;-76
2023/04/12 07:04:33;;;;;;;;;;;7.70;99.90;;;;;;5106054;28;19931;-76
2023/04/12 07:06:59;;;;;;;;;;;7.70;99.90;;;;;;5107795;28;19924;-76
2023/04/12 07:09:25;;;;;;;;;;;7.70;99.90;;;;;;5105900;28;19931;-76
2023/04/12 07:11:50;;;;;;;;;;;7.70;99.90;;;;;;5106799;28;19923;-76
2023/04/12 07:14:16;;;;;;;;;;;7.70;99.90;;;;;;5101462;28;19931;-76
2023/04/12 07:16:42;;;;;;;;;;;7.70;99.90;;;;;;5090080;28;19928;-76
2023/04/12 07:19:07;;;;;;;;;;;7.70;99.90;;;;;;5095517;28;19924;-76
2023/04/12 07:21:33;;;;;;;;;;;7.70;99.90;;;;;;5079560;28;19950;-76
2023/04/12 07:23:58;;;;;;;;;;;7.80;99.90;;;;;;5088994;28;19950;-76
2023/04/12 07:26:24;;;;;;;;;;;7.70;99.90;;;;;;5088239;28;20035;-77
2023/04/12 07:28:50;;;;;;;;;;;7.80;99.90;;;;;;5088681;28;19930;-77
2023/04/12 07:31:16;;;;;;;;;;;7.70;99.90;;;;;;5100028;28;19924;-76
2023/04/12 07:33:41;;;;;;;;;;;7.70;99.90;;;;;;5093801;28;20373;-77
2023/04/12 07:36:07;;;;;;;;;;;7.80;99.90;;;;;;5108784;28;20027;-76
2023/04/12 07:38:33;;;;;;;;;;;7.70;99.90;;;;;;5106302;28;19924;-77
2023/04/12 07:40:58;;;;;;;;;;;7.70;99.90;;;;;;5108254;28;20352;-76
2023/04/12 07:43:24;;;;;;;;;;;7.70;99.90;;;;;;5107541;28;20022;-76
2023/04/12 07:45:50;;;;;;;;;;;7.70;99.90;;;;;;5107888;28;19928;-76
2023/04/12 07:48:16;;;;;;;;;;;7.70;99.90;;;;;;5106506;28;19943;-76
2023/04/12 07:50:41;;;;;;;;;;;7.70;99.90;;;;;;5106942;28;20341;-76
2023/04/12 07:53:18;;;;;;;;;;;7.70;99.90;;;;;;5104577;28;19950;-76
2023/04/12 07:55:43;;;;;;;;;;;7.70;99.90;;;;;;5106811;28;19950;-77
2023/04/12 07:58:09;;;;;;;;;;;7.70;99.90;;;;;;5104530;28;19924;-76
2023/04/12 08:00:34;;;;;;;;;;;7.70;99.90;;;;;;5106741;28;20397;-76
2023/04/12 08:03:00;;;;;;;;;;;7.70;99.90;;;;;;5104446;28;19928;-76
2023/04/12 08:05:25;;;;;;;;;;;7.70;99.90;;;;;;5107171;28;20385;-76
2023/04/12 08:07:51;;;;;;;;;;;7.70;99.90;;;;;;5104703;28;19931;-76
2023/04/12 08:10:16;;;;;;;;;;;7.70;99.90;;;;;;5096914;28;20030;-76
2023/04/12 08:12:42;;;;;;;;;;;7.70;99.90;;;;;;5099799;28;19928;-77
2023/04/12 08:15:08;;;;;;;;;;;7.70;99.90;;;;;;5098576;28;20366;-76
2023/04/12 08:17:33;;;;;;;;;;;7.70;99.90;;;;;;5104915;28;19924;-77
2023/04/12 08:19:59;;;;;;;;;;;7.70;99.90;;;;;;5085626;28;19974;-76
2023/04/12 08:22:25;;;;;;;;;;;7.70;99.90;;;;;;5088669;28;20412;-77
2023/04/12 08:24:50;;;;;;;;;;;7.80;99.90;;;;;;5103246;28;19923;-77
2023/04/12 08:27:16;;;;;;;;;;;7.80;99.90;;;;;;5111049;28;20315;-77
2023/04/12 08:29:41;;;;;;;;;;;7.80;99.90;;;;;;5101257;28;20284;-76
2023/04/12 08:32:08;;;;;;;;;;;7.80;99.90;;;;;;5108965;28;19931;-77
2023/04/12 08:34:34;;;;;;;;;;;7.80;99.90;;;;;;5100154;28;19931;-77
2023/04/12 08:36:59;;;;;;;;;;;7.80;99.90;;;;;;5092377;28;19924;-77
2023/04/12 08:39:25;;;;;;;;;;;7.90;99.90;;;;;;5092461;28;20679;-77
2023/04/12 08:41:52;;;;;;;;;;;7.90;99.90;;;;;;5092508;28;19924;-76
2023/04/12 08:44:18;;;;;;;;;;;7.90;99.90;;;;;;5093883;28;19924;-76
2023/04/12 08:46:44;;;;;;;;;;;7.90;99.90;;;;;;5092531;28;19939;-77
2023/04/12 08:49:10;;;;;;;;;;;8.00;99.90;;;;;;5092734;28;19958;-77
2023/04/12 08:51:36;;;;;;;;;;;8.00;99.90;;;;;;5092814;28;20382;-76
2023/04/12 08:54:03;;;;;;;;;;;8.00;99.90;;;;;;5074038;28;19924;-77
2023/04/12 08:56:30;;;;;;;;;;;8.00;99.90;;;;;;5073804;28;19931;-77
2023/04/12 08:58:56;;;;;;;;;;;8.00;99.90;;;;;;5090689;28;19931;-77
2023/04/12 09:01:21;;;;;;;;;;;8.00;99.90;;;;;;5090023;28;19924;-77
2023/04/12 09:03:47;;;;;;;;;;;8.00;99.90;;;;;;5090397;28;19924;-77
2023/04/12 09:06:12;;;;;;;;;;;8.10;99.90;;;;;;5090292;28;19931;-77
2023/04/12 09:08:51;;;;;;;;;;;8.10;99.90;;;;;;5090637;28;19928;-76
2023/04/12 09:11:21;;;;;;;;;;;8.10;99.90;;;;;;5089772;28;20014;-76
2023/04/12 09:13:47;;;;;;;;;;;8.10;99.90;;;;;;5089989;28;19924;-77
2023/04/12 09:16:13;;;;;;;;;;;8.10;99.90;;;;;;5089676;28;19931;-77
2023/04/12 09:18:56;;;;;;;;;;;8.20;99.90;;;;;;5073758;28;19947;-77
2023/04/12 09:21:22;;;;;;;;;;;8.10;99.90;;;;;;5090667;28;20317;-77
2023/04/12 09:24:00;;;;;;;;;;;8.20;99.90;;;;;;5072757;28;19932;-77
2023/04/12 09:26:27;;;;;;;;;;;8.20;99.90;;;;;;5090278;28;19932;-77
2023/04/12 09:28:52;;;;;;;;;;;8.20;99.90;;;;;;5105157;28;19927;-77
2023/04/12 09:31:18;;;;;;;;;;;8.20;99.90;;;;;;5099356;28;19931;-76
2023/04/12 09:33:44;;;;;;;;;;;8.30;99.90;;;;;;5092318;28;20377;-77
2023/04/12 09:36:13;;;;;;;;;;;8.40;99.90;;;;;;5109170;28;20050;-76
2023/04/12 09:38:40;;;;;;;;;;;8.40;99.90;;;;;;5107377;28;19930;-77
2023/04/12 09:41:15;;;;;;;;;;;8.40;99.90;;;;;;5108802;28;20056;-77
2023/04/12 09:43:40;;;;;;;;;;;8.50;99.90;;;;;;5107154;28;20416;-77
2023/04/12 09:46:08;;;;;;;;;;;8.50;99.90;;;;;;5107883;28;19923;-77
2023/04/12 09:48:34;;;;;;;;;;;8.40;99.90;;;;;;5105552;28;19923;-77
2023/04/12 09:51:00;;;;;;;;;;;8.40;99.90;;;;;;5091164;28;19923;-77
2023/04/12 09:53:25;;;;;;;;;;;8.50;99.90;;;;;;5106754;28;20274;-76
2023/04/12 09:55:51;;;;;;;;;;;8.50;99.90;;;;;;5090793;28;19931;-77
2023/04/12 09:58:18;;;;;;;;;;;8.60;99.90;;;;;;5100979;28;19924;-76
2023/04/12 10:00:44;;;;;;;;;;;8.60;99.90;;;;;;5101779;28;20003;-77
2023/04/12 10:03:10;;;;;;;;;;;8.70;99.90;;;;;;5076560;28;20014;-76
2023/04/12 10:05:37;;;;;;;;;;;8.70;99.90;;;;;;5110004;28;19924;-77
2023/04/12 10:08:04;;;;;;;;;;;8.70;99.90;;;;;;5107051;28;20029;-77
2023/04/12 10:10:30;;;;;;;;;;;8.80;99.90;;;;;;5108089;28;20012;-77
2023/04/12 10:12:56;;;;;;;;;;;8.90;99.90;;;;;;5096693;28;20404;-77
2023/04/12 10:15:24;;;;;;;;;;;9.10;99.90;;;;;;5107813;28;19996;-77
2023/04/12 10:17:53;;;;;;;;;;;9.20;99.90;;;;;;5107521;28;19924;-77
2023/04/12 10:20:19;;;;;;;;;;;9.30;99.90;;;;;;5081511;28;19924;-77
2023/04/12 10:22:45;;;;;;;;;;;9.40;99.90;;;;;;5096630;28;19930;-77
2023/04/12 10:25:16;;;;;;;;;;;9.50;99.90;;;;;;5090373;28;20022;-77
2023/04/12 10:27:42;;;;;;;;;;;9.60;99.90;;;;;;5084707;28;19924;-77
2023/04/12 10:30:26;;;;;;;;;;;9.80;99.90;;;;;;5107450;28;19924;-77
2023/04/12 10:33:01;;;;;;;;;;;10.00;99.90;;;;;;5109005;28;20398;-77
2023/04/12 10:35:26;;;;;;;;;;;10.00;99.90;;;;;;5090234;28;19924;-77
2023/04/12 10:38:02;;;;;;;;;;;10.20;99.90;;;;;;5109040;28;19930;-77
2023/04/12 10:40:28;;;;;;;;;;;10.40;99.90;;;;;;5103599;28;19976;-77
2023/04/12 10:43:32;;;;;;;;;;;10.50;99.90;;;;;;5106690;28;19924;-78
2023/04/12 10:46:03;;;;;;;;;;;10.70;99.90;;;;;;5047775;28;19940;-77
2023/04/12 10:48:28;;;;;;;;;;;10.70;99.90;;;;;;5042047;28;19925;-77
2023/04/12 10:51:16;;;;;;;;;;;10.70;99.90;;;;;;5048570;28;19950;-77
2023/04/12 10:53:42;;;;;;;;;;;10.70;99.90;;;;;;5106645;28;19930;-77
2023/04/12 10:56:40;;;;;;;;;;;10.70;99.90;;;;;;5105039;28;20338;-77
2023/04/12 10:59:06;;;;;;;;;;;10.80;99.90;;;;;;5055375;28;19925;-77
2023/04/12 11:01:32;;;;;;;;;;;11.00;99.90;;;;;;5086882;28;19950;-77
2023/04/12 11:04:04;;;;;;;;;;;11.40;99.90;;;;;;5106365;28;19928;-77
2023/04/12 11:07:03;;;;;;;;;;;11.70;99.90;;;;;;5102899;28;19930;-77
2023/04/12 11:09:32;;;;;;;;;;;12.00;99.90;;;;;;5034035;28;19938;-77
2023/04/12 11:12:04;;;;;;;;;;;12.30;99.90;;;;;;5106561;28;19978;-77
2023/04/12 11:14:35;;;;;;;;;;;12.40;99.90;;;;;;5100257;28;20015;-77
2023/04/12 11:17:07;;;;;;;;;;;12.40;99.90;;;;;;5099092;28;19928;-77
2023/04/12 11:19:36;;;;;;;;;;;12.40;99.90;;;;;;5091487;28;19931;-77
2023/04/12 11:22:02;;;;;;;;;;;12.40;99.90;;;;;;5082582;28;19928;-77
2023/04/12 11:24:28;;;;;;;;;;;12.60;99.90;;;;;;5089048;28;20033;-77
2023/04/12 11:26:55;;;;;;;;;;;12.60;99.90;;;;;;5089407;28;20027;-77
2023/04/12 11:29:24;;;;;;;;;;;12.40;99.90;;;;;;5090171;28;20274;-77
2023/04/12 11:31:49;;;;;;;;;;;12.20;99.90;;;;;;5090838;28;19931;-77
2023/04/12 11:34:18;;;;;;;;;;;12.10;99.90;;;;;;5100428;28;19924;-77
2023/04/12 11:36:45;;;;;;;;;;;12.10;99.90;;;;;;5090274;28;19928;-78
2023/04/12 11:39:10;;;;;;;;;;;12.30;99.90;;;;;;5090111;28;20002;-77
2023/04/12 11:41:36;;;;;;;;;;;12.50;99.90;;;;;;5088641;28;20007;-78
2023/04/12 11:44:02;;;;;;;;;;;13.20;99.90;;;;;;5096703;28;20312;-77
2023/04/12 11:46:34;;;;;;;;;;;13.80;99.90;;;;;;5107421;28;19931;-77
2023/04/12 11:48:59;;;;;;;;;;;14.30;99.90;;;;;;5108629;28;20347;-78
2023/04/12 11:51:27;;;;;;;;;;;15.00;99.90;;;;;;5105460;28;19932;-77
2023/04/12 11:53:58;;;;;;;;;;;15.00;99.90;;;;;;5107199;28;19931;-77
2023/04/12 11:56:24;;;;;;;;;;;14.80;99.90;;;;;;5074592;28;19928;-77
2023/04/12 11:58:50;;;;;;;;;;;14.40;99.90;;;;;;5093926;28;19965;-77
2023/04/12 12:01:19;;;;;;;;;;;14.10;99.90;;;;;;5095158;28;19923;-77
2023/04/12 12:03:45;;;;;;;;;;;13.90;99.90;;;;;;5112130;28;19950;-77
2023/04/12 12:06:11;;;;;;;;;;;13.80;99.90;;;;;;5107921;28;20358;-78
2023/04/12 12:08:37;;;;;;;;;;;13.70;99.90;;;;;;5111295;28;19969;-77
2023/04/12 12:11:02;;;;;;;;;;;13.60;99.90;;;;;;5107398;28;19932;-77
2023/04/12 12:13:47;;;;;;;;;;;13.40;99.90;;;;;;5110497;28;19957;-77
2023/04/12 12:16:13;;;;;;;;;;;13.30;99.90;;;;;;5103254;28;19938;-77
2023/04/12 12:18:39;;;;;;;;;;;13.20;99.90;;;;;;5108150;28;20010;-78
2023/04/12 12:21:07;;;;;;;;;;;13.30;99.90;;;;;;5085355;28;20308;-78
2023/04/12 12:23:32;;;;;;;;;;;13.30;99.90;;;;;;5112288;28;20320;-77
2023/04/12 12:25:59;;;;;;;;;;;13.30;99.90;;;;;;5108149;28;19931;-77
2023/04/12 12:28:25;;;;;;;;;;;13.20;99.90;;;;;;5105506;28;20682;-77
2023/04/12 12:30:53;;;;;;;;;;;13.20;99.90;;;;;;5112060;28;19931;-77
2023/04/12 12:33:19;;;;;;;;;;;13.20;99.90;;;;;;5110449;28;20010;-77
2023/04/12 12:35:45;;;;;;;;;;;13.20;99.90;;;;;;5092626;28;19924;-77
2023/04/12 12:38:10;;;;;;;;;;;13.20;99.90;;;;;;5108693;28;19977;-77
2023/04/12 12:40:37;;;;;;;;;;;13.10;99.90;;;;;;5109046;28;19923;-77
2023/04/12 12:43:02;;;;;;;;;;;13.10;99.90;;;;;;5108140;28;19931;-77
2023/04/12 12:45:30;;;;;;;;;;;13.00;99.90;;;;;;5109021;28;19924;-77
2023/04/12 12:48:02;;;;;;;;;;;13.00;99.90;;;;;;5109076;28;19924;-77
2023/04/12 12:50:32;;;;;;;;;;;12.90;99.90;;;;;;5080997;28;19949;-78
2023/04/12 12:52:59;;;;;;;;;;;12.90;99.90;;;;;;5104296;28;20410;-78
2023/04/12 12:55:25;;;;;;;;;;;12.90;99.90;;;;;;5109373;28;20389;-78
2023/04/12 12:57:52;;;;;;;;;;;12.80;99.90;;;;;;5095655;28;19931;-77
2023/04/12 13:00:18;;;;;;;;;;;12.80;99.90;;;;;;5110960;28;19931;-78
2023/04/12 13:02:43;;;;;;;;;;;12.70;99.90;;;;;;5108906;28;19962;-77
2023/04/12 13:05:09;;;;;;;;;;;12.40;99.90;;;;;;5102235;28;19970;-77
2023/04/12 13:07:35;;;;;;;;;;;12.30;99.90;;;;;;5104928;28;19924;-76
2023/04/12 13:10:01;;;;;;;;;;;12.20;99.90;;;;;;5110725;28;20313;-77
2023/04/12 13:12:26;;;;;;;;;;;12.20;99.90;;;;;;5095766;27;20014;-77
2023/04/12 13:14:52;;;;;;;;;;;12.20;99.90;;;;;;5108827;28;20353;-78
2023/04/12 13:17:18;;;;;;;;;;;12.20;99.90;;;;;;5089324;28;19928;-77
2023/04/12 13:19:46;;;;;;;;;;;12.20;99.90;;;;;;5092439;28;19928;-78
2023/04/12 13:22:12;;;;;;;;;;;12.20;99.90;;;;;;5090861;28;19939;-77
2023/04/12 13:24:38;;;;;;;;;;;12.20;99.90;;;;;;5111110;28;19924;-77
2023/04/12 13:27:04;;;;;;;;;;;12.20;99.90;;;;;;5092876;28;20517;-77
2023/04/12 13:29:29;;;;;;;;;;;12.20;99.90;;;;;;5112289;28;19923;-77
2023/04/12 13:31:55;;;;;;;;;;;12.20;99.90;;;;;;5108174;28;19924;-77
2023/04/12 13:34:20;;;;;;;;;;;12.10;99.90;;;;;;5109249;28;19931;-77
2023/04/12 13:36:46;;;;;;;;;;;12.10;99.90;;;;;;5096022;28;19931;-77
2023/04/12 13:39:12;;;;;;;;;;;12.10;99.90;;;;;;5110765;28;19933;-77
2023/04/12 13:41:37;;;;;;;;;;;12.20;99.90;;;;;;5107974;28;20322;-77
2023/04/12 13:44:03;;;;;;;;;;;12.30;99.90;;;;;;5109906;28;20314;-77
2023/04/12 13:46:29;;;;;;;;;;;12.60;99.90;;;;;;5107513;28;19970;-77
2023/04/12 13:48:55;;;;;;;;;;;12.90;99.90;;;;;;5109708;28;20010;-77
2023/04/12 13:51:20;;;;;;;;;;;13.40;99.90;;;;;;5103468;28;21540;-78
2023/04/12 13:53:46;;;;;;;;;;;13.40;99.90;;;;;;5107517;28;19930;-77
2023/04/12 13:56:11;;;;;;;;;;;13.20;99.90;;;;;;5104423;28;20021;-77
2023/04/12 13:58:38;;;;;;;;;;;13.10;99.90;;;;;;5107960;28;19924;-77
2023/04/12 14:01:05;;;;;;;;;;;13.30;99.90;;;;;;5103837;28;19939;-77
2023/04/12 14:03:30;;;;;;;;;;;13.70;99.90;;;;;;5108840;28;20014;-78
2023/04/12 14:05:56;;;;;;;;;;;14.70;99.90;;;;;;5104077;28;19990;-77
2023/04/12 14:08:21;;;;;;;;;;;15.10;99.90;;;;;;5107288;28;20567;-77
2023/04/12 14:10:47;;;;;;;;;;;15.70;99.90;;;;;;5104164;28;20631;-77
2023/04/12 14:13:12;;;;;;;;;;;15.60;99.90;;;;;;5108608;28;19928;-77
2023/04/12 14:15:38;;;;;;;;;;;15.40;99.90;;;;;;5086474;28;20001;-77
2023/04/12 14:18:03;;;;;;;;;;;15.60;99.90;;;;;;5089260;28;19928;-77
2023/04/12 14:20:29;;;;;;;;;;;16.00;99.90;;;;;;5078131;28;19928;-77
2023/04/12 14:22:55;;;;;;;;;;;16.10;99.90;;;;;;5090650;28;19924;-77
2023/04/12 14:25:21;;;;;;;;;;;15.80;99.90;;;;;;5104560;28;20432;-77